createdAt,value
2018-07-11T00:00:53.993Z,15.60
2018-07-11T00:03:32.925Z,15.40
2018-07-11T00:06:01.613Z,15.50
2018-07-11T00:08:30.167Z,15.30
2018-07-11T00:10:58.728Z,15.30
2018-07-11T00:13:27.197Z,15.40
2018-07-11T00:15:55.691Z,15.40
2018-07-11T00:18:24.195Z,15.40
2018-07-11T00:20:52.802Z,15.50
2018-07-11T00:23:21.368Z,15.60
2018-07-11T00:25:50.576Z,15.60
2018-07-11T00:28:19.165Z,15.70
2018-07-11T00:30:48.051Z,15.70
2018-07-11T00:33:17.670Z,15.80
2018-07-11T00:35:47.436Z,15.90
2018-07-11T00:38:18.142Z,15.90
2018-07-11T00:40:46.682Z,15.90
2018-07-11T00:48:15.171Z,15.90
2018-07-11T00:53:12.337Z,15.90
2018-07-11T00:55:40.905Z,15.90
2018-07-11T00:58:45.004Z,15.90
2018-07-11T01:01:16.259Z,16.00
2018-07-11T01:03:49.619Z,16.10
2018-07-11T01:06:19.339Z,16.10
2018-07-11T01:08:50.873Z,16.10
2018-07-11T01:11:19.458Z,16.10
2018-07-11T01:13:48.859Z,16.00
2018-07-11T01:18:57.630Z,16.00
2018-07-11T01:21:26.208Z,16.00
2018-07-11T01:23:54.749Z,16.00
2018-07-11T01:26:27.326Z,16.00
2018-07-11T01:28:56.097Z,16.00
2018-07-11T01:31:25.112Z,15.90
2018-07-11T01:33:54.009Z,16.00
2018-07-11T01:36:22.736Z,16.00
2018-07-11T01:38:51.658Z,16.00
2018-07-11T01:41:20.175Z,16.10
2018-07-11T01:43:48.678Z,16.00
2018-07-11T01:46:17.866Z,16.00
2018-07-11T01:48:46.547Z,16.00
2018-07-11T01:58:50.665Z,16.20
2018-07-11T02:01:19.214Z,16.00
2018-07-11T02:03:47.761Z,15.90
2018-07-11T02:06:17.794Z,15.80
2018-07-11T02:08:48.908Z,15.80
2018-07-11T02:11:17.425Z,15.70
2018-07-11T02:13:46.011Z,15.70
2018-07-11T02:16:14.649Z,15.70
2018-07-11T02:18:43.154Z,15.80
2018-07-11T02:21:11.788Z,15.80
2018-07-11T02:23:40.357Z,15.90
2018-07-11T02:26:09.124Z,16.00
2018-07-11T02:28:38.186Z,15.90
2018-07-11T02:31:06.740Z,15.90
2018-07-11T02:36:03.488Z,16.10
2018-07-11T02:38:31.986Z,16.00
2018-07-11T02:41:00.808Z,16.00
2018-07-11T02:45:57.471Z,16.00
2018-07-11T02:48:25.950Z,16.00
2018-07-11T02:50:55.125Z,16.10
2018-07-11T02:53:24.607Z,16.10
2018-07-11T02:55:53.702Z,16.10
2018-07-11T02:58:22.386Z,16.10
2018-07-11T03:00:50.988Z,16.00
2018-07-11T03:03:19.575Z,16.00
2018-07-11T03:05:48.127Z,16.00
2018-07-11T03:08:18.169Z,16.00
2018-07-11T03:10:47.308Z,15.90
2018-07-11T03:13:20.371Z,15.90
2018-07-11T03:15:48.843Z,16.00
2018-07-11T03:18:17.440Z,15.80
2018-07-11T03:20:45.958Z,15.70
2018-07-11T03:31:51.602Z,15.80
2018-07-11T03:34:20.102Z,15.80
2018-07-11T03:39:16.848Z,15.60
2018-07-11T03:41:45.678Z,15.70
2018-07-11T03:52:01.672Z,15.70
2018-07-11T03:54:30.175Z,15.80
2018-07-11T03:56:58.633Z,15.80
2018-07-11T03:59:27.146Z,15.80
2018-07-11T04:01:55.618Z,15.80
2018-07-11T04:04:24.096Z,15.80
2018-07-11T04:09:20.885Z,16.10
2018-07-11T04:11:49.443Z,16.20
2018-07-11T04:14:19.302Z,16.20
2018-07-11T04:19:16.643Z,16.10
2018-07-11T04:21:45.146Z,16.30
2018-07-11T04:29:11.002Z,16.50
2018-07-11T04:31:39.554Z,16.50
2018-07-11T04:34:08.082Z,16.50
2018-07-11T04:36:36.915Z,16.40
2018-07-11T04:39:05.637Z,16.50
2018-07-11T04:41:34.208Z,16.60
2018-07-11T04:44:03.222Z,16.70
2018-07-11T04:46:34.051Z,16.90
2018-07-11T04:49:02.673Z,17.00
2018-07-11T04:51:31.265Z,17.10
2018-07-11T04:54:00.325Z,17.00
2018-07-11T04:56:29.361Z,17.00
2018-07-11T04:58:58.006Z,17.00
2018-07-11T05:01:26.507Z,17.10
2018-07-11T05:03:55.331Z,17.20
2018-07-11T05:06:23.886Z,17.30
2018-07-11T05:11:20.557Z,17.20
2018-07-11T05:13:49.121Z,17.10
2018-07-11T05:18:46.091Z,16.90
2018-07-11T05:27:54.123Z,16.90
2018-07-11T05:30:22.606Z,17.00
2018-07-11T05:32:51.111Z,16.60
2018-07-11T05:35:19.657Z,16.70
2018-07-11T05:37:48.202Z,16.70
2018-07-11T05:40:24.023Z,17.00
2018-07-11T05:42:52.545Z,17.40
2018-07-11T05:45:21.741Z,17.60
2018-07-11T05:47:50.480Z,17.80
2018-07-11T05:50:19.564Z,17.80
2018-07-11T05:52:48.119Z,17.80
2018-07-11T05:55:18.784Z,17.50
2018-07-11T05:57:47.273Z,17.70
2018-07-11T06:10:48.285Z,18.20
2018-07-11T06:13:17.547Z,18.10
2018-07-11T06:15:46.099Z,17.90
2018-07-11T06:18:16.427Z,17.90
2018-07-11T06:20:44.911Z,17.90
2018-07-11T06:23:13.567Z,17.70
2018-07-11T06:25:42.067Z,17.70
2018-07-11T06:28:10.579Z,17.50
2018-07-11T06:30:39.695Z,17.80
2018-07-11T06:33:08.160Z,18.40
2018-07-11T06:35:36.663Z,19.80
2018-07-11T06:38:05.251Z,21.00
2018-07-11T06:40:33.762Z,22.00
2018-07-11T06:43:02.267Z,22.20
2018-07-11T06:45:31.215Z,22.70
2018-07-11T06:47:59.804Z,23.40
2018-07-11T06:50:28.171Z,24.30
2018-07-11T06:52:57.446Z,25.20
2018-07-11T06:55:25.948Z,25.60
2018-07-11T07:00:22.711Z,27.50
2018-07-11T07:02:51.183Z,28.70
2018-07-11T07:05:20.916Z,29.70
2018-07-11T07:07:49.442Z,29.70
2018-07-11T07:10:17.916Z,29.90
2018-07-11T07:12:46.384Z,30.10
2018-07-11T07:23:56.682Z,29.10
2018-07-11T07:26:25.159Z,27.60
2018-07-11T07:28:53.727Z,25.90
2018-07-11T07:31:22.227Z,26.20
2018-07-11T07:33:50.721Z,27.50
2018-07-11T07:36:19.187Z,27.20
2018-07-11T07:38:47.703Z,26.50
2018-07-11T07:41:18.107Z,25.40
2018-07-11T07:43:46.655Z,24.60
2018-07-11T07:46:17.666Z,25.00
2018-07-11T07:48:46.434Z,25.40
2018-07-11T07:59:11.711Z,26.40
2018-07-11T08:01:40.480Z,27.50
2018-07-11T08:04:09.471Z,26.20
2018-07-11T08:06:38.267Z,28.10
2018-07-11T08:09:06.735Z,29.90
2018-07-11T08:11:35.324Z,31.30
2018-07-11T08:14:08.676Z,31.80
2018-07-11T08:16:37.185Z,33.10
2018-07-11T08:19:05.939Z,34.50
2018-07-11T08:21:34.729Z,34.70
2018-07-11T08:24:14.421Z,34.70
2018-07-11T08:26:55.119Z,34.60
2018-07-11T08:29:38.477Z,33.30
2018-07-11T08:34:25.870Z,34.10
2018-07-11T08:37:11.146Z,33.50
2018-07-11T08:40:20.678Z,33.10
2018-07-11T08:43:30.144Z,32.30
2018-07-11T08:46:09.159Z,30.50
2018-07-11T08:49:50.992Z,28.70
2018-07-11T08:52:28.997Z,27.90
2018-07-11T08:55:46.071Z,30.60
2018-07-11T09:03:57.818Z,33.80
2018-07-11T09:08:44.835Z,30.70
2018-07-11T09:11:40.942Z,29.00
2018-07-11T09:14:23.324Z,26.80
2018-07-11T09:17:14.155Z,25.60
2018-07-11T09:20:06.803Z,26.10
2018-07-11T09:22:52.432Z,27.40
2018-07-11T09:25:23.067Z,26.80
2018-07-11T09:27:51.538Z,27.10
2018-07-11T09:30:20.058Z,26.90
2018-07-11T09:32:48.972Z,26.50
2018-07-11T09:35:17.507Z,26.00
2018-07-11T09:37:46.029Z,25.50
2018-07-11T09:47:30.462Z,25.40
2018-07-11T09:52:27.823Z,25.50
2018-07-11T09:54:56.406Z,25.50
2018-07-11T09:57:25.591Z,25.70
2018-07-11T09:59:54.143Z,25.70
2018-07-11T10:02:22.692Z,25.20
2018-07-11T10:04:51.847Z,25.10
2018-07-11T10:07:20.412Z,25.40
2018-07-11T10:09:49.073Z,25.60
2018-07-11T10:12:17.625Z,25.60
2018-07-11T10:14:46.108Z,25.70
2018-07-11T10:27:45.571Z,26.40
2018-07-11T10:30:15.510Z,27.20
2018-07-11T10:32:44.259Z,25.40
2018-07-11T10:35:12.954Z,24.90
2018-07-11T10:37:41.644Z,24.50
2018-07-11T10:40:10.216Z,24.10
2018-07-11T10:42:39.065Z,23.60
2018-07-11T10:45:08.637Z,23.50
2018-07-11T10:47:37.181Z,23.80
2018-07-11T10:50:07.283Z,24.10
2018-07-11T10:52:36.104Z,24.20
2018-07-11T10:55:05.835Z,24.40
2018-07-11T10:57:34.344Z,24.70
2018-07-11T11:00:02.937Z,25.00
2018-07-11T11:02:31.496Z,25.20
2018-07-11T11:05:00.044Z,25.10
2018-07-11T11:07:28.611Z,24.60
2018-07-11T11:09:57.188Z,24.60
2018-07-11T11:12:26.301Z,24.80
2018-07-11T11:14:54.883Z,25.20
2018-07-11T11:17:23.554Z,25.40
2018-07-11T11:19:52.043Z,25.60
2018-07-11T11:22:20.559Z,25.50
2018-07-11T11:24:49.197Z,25.20
2018-07-11T11:27:17.905Z,24.60
2018-07-11T11:29:47.350Z,24.30
2018-07-11T11:38:22.855Z,23.70
2018-07-11T11:40:51.576Z,23.10
2018-07-11T11:43:20.159Z,22.00
2018-07-11T11:45:48.714Z,21.90
2018-07-11T11:48:17.911Z,21.60
2018-07-11T11:50:47.324Z,21.50
2018-07-11T12:03:30.452Z,21.40
2018-07-11T12:05:59.034Z,21.30
2018-07-11T12:08:27.886Z,21.90
2018-07-11T12:10:56.446Z,22.10
2018-07-11T12:13:28.278Z,22.20
2018-07-11T12:15:57.061Z,22.30
2018-07-11T12:18:26.227Z,22.40
2018-07-11T12:20:57.126Z,22.80
2018-07-11T12:23:26.064Z,23.30
2018-07-11T12:26:04.978Z,23.20
2018-07-11T12:28:33.677Z,23.40
2018-07-11T12:31:02.482Z,23.40
2018-07-11T12:33:31.176Z,23.30
2018-07-11T12:35:59.791Z,23.40
2018-07-11T12:38:29.262Z,23.50
2018-07-11T12:40:57.751Z,23.40
2018-07-11T12:43:27.503Z,23.30
2018-07-11T12:45:57.110Z,23.30
2018-07-11T12:48:31.283Z,23.30
2018-07-11T12:51:00.547Z,23.20
2018-07-11T12:53:29.732Z,23.40
2018-07-11T12:55:58.530Z,23.70
2018-07-11T12:58:27.663Z,24.00
2018-07-11T13:00:57.084Z,23.80
2018-07-11T13:03:26.548Z,23.80
2018-07-11T13:05:55.258Z,24.00
2018-07-11T13:08:23.900Z,24.30
2018-07-11T13:10:52.475Z,24.60
2018-07-11T13:13:22.083Z,24.60
2018-07-11T13:15:51.331Z,24.60
2018-07-11T13:18:19.872Z,24.50
2018-07-11T13:20:48.476Z,24.70
2018-07-11T13:23:17.407Z,24.80
2018-07-11T13:25:46.150Z,24.70
2018-07-11T13:42:23.958Z,24.50
2018-07-11T13:44:53.299Z,24.40
2018-07-11T13:47:27.589Z,23.60
2018-07-11T13:49:57.289Z,23.80
2018-07-11T13:52:26.428Z,23.90
2018-07-11T13:54:55.095Z,23.90
2018-07-11T13:57:23.744Z,24.20
2018-07-11T13:59:53.584Z,24.20
2018-07-11T14:02:22.793Z,24.30
2018-07-11T14:04:51.315Z,24.30
2018-07-11T14:07:21.353Z,24.30
2018-07-11T14:09:50.085Z,24.10
2018-07-11T14:12:18.594Z,24.20
2018-07-11T14:14:47.186Z,24.00
2018-07-11T14:26:58.002Z,23.90
2018-07-11T14:29:29.341Z,23.70
2018-07-11T14:31:58.367Z,23.30
2018-07-11T14:34:28.014Z,23.20
2018-07-11T14:36:58.067Z,23.20
2018-07-11T14:39:26.868Z,23.30
2018-07-11T14:41:55.679Z,23.20
2018-07-11T14:44:24.523Z,23.10
2018-07-11T14:46:53.150Z,23.00
2018-07-11T14:49:22.120Z,23.00
2018-07-11T14:51:50.839Z,23.20
2018-07-11T14:54:20.289Z,23.40
2018-07-11T14:56:49.153Z,23.80
2018-07-11T14:59:17.755Z,24.00
2018-07-11T15:01:46.291Z,23.90
2018-07-11T15:13:00.808Z,23.70
2018-07-11T15:15:30.543Z,23.30
2018-07-11T15:17:59.910Z,22.80
2018-07-11T15:20:28.811Z,22.50
2018-07-11T15:22:57.524Z,22.20
2018-07-11T15:25:26.232Z,21.80
2018-07-11T15:27:55.905Z,22.30
2018-07-11T15:30:24.598Z,22.30
2018-07-11T15:32:53.176Z,22.60
2018-07-11T15:35:21.918Z,22.80
2018-07-11T15:37:51.976Z,23.00
2018-07-11T15:40:21.471Z,23.00
2018-07-11T15:42:50.144Z,22.80
2018-07-11T15:45:18.799Z,22.70
2018-07-11T15:47:47.798Z,22.70
2018-07-11T15:50:17.534Z,22.80
2018-07-11T15:52:46.112Z,23.00
2018-07-11T15:55:16.387Z,23.20
2018-07-11T15:57:51.262Z,23.00
2018-07-11T16:00:22.680Z,22.90
2018-07-11T16:02:54.272Z,22.80
2018-07-11T16:05:23.733Z,23.00
2018-07-11T16:07:53.028Z,23.20
2018-07-11T16:10:28.748Z,23.20
2018-07-11T16:12:57.301Z,23.10
2018-07-11T16:15:25.861Z,23.10
2018-07-11T16:17:54.772Z,23.20
2018-07-11T16:20:23.271Z,23.20
2018-07-11T16:22:51.831Z,23.10
2018-07-11T16:25:21.250Z,23.10
2018-07-11T16:27:50.103Z,23.20
2018-07-11T16:30:19.058Z,23.10
2018-07-11T16:32:48.310Z,22.80
2018-07-11T16:35:17.542Z,22.50
2018-07-11T16:37:46.207Z,22.60
2018-07-11T16:51:16.828Z,22.90
2018-07-11T16:53:47.846Z,22.80
2018-07-11T17:03:53.583Z,22.70
2018-07-11T17:06:22.260Z,22.80
2018-07-11T17:08:53.095Z,22.80
2018-07-11T17:11:25.568Z,22.80
2018-07-11T17:13:59.193Z,22.80
2018-07-11T17:16:32.375Z,22.80
2018-07-11T17:19:11.809Z,22.70
2018-07-11T17:21:48.477Z,22.60
2018-07-11T17:24:20.239Z,22.60
2018-07-11T17:29:22.993Z,22.60
2018-07-11T17:31:53.826Z,22.60
2018-07-11T17:36:55.047Z,22.60
2018-07-11T17:39:23.678Z,22.60
2018-07-11T17:41:52.287Z,22.50
2018-07-11T17:44:21.408Z,22.40
2018-07-11T17:46:50.117Z,22.20
2018-07-11T17:49:41.155Z,22.10
2018-07-11T17:52:11.071Z,22.10
2018-07-11T17:55:00.782Z,21.90
2018-07-11T17:57:36.942Z,21.80
2018-07-11T18:00:08.558Z,21.70
2018-07-11T18:03:01.917Z,21.50
2018-07-11T18:05:40.919Z,21.50
2018-07-11T18:08:10.893Z,21.40
2018-07-11T18:10:46.501Z,21.40
2018-07-11T18:21:28.989Z,20.90
2018-07-11T18:24:06.131Z,20.60
2018-07-11T18:29:05.406Z,20.50
2018-07-11T18:31:44.506Z,20.20
2018-07-11T18:34:35.229Z,19.90
2018-07-11T18:37:15.760Z,19.60
2018-07-11T18:39:52.903Z,19.50
2018-07-11T18:42:33.614Z,19.40
2018-07-11T18:47:18.827Z,19.30
2018-07-11T18:49:54.895Z,19.20
2018-07-11T18:52:29.935Z,19.00
2018-07-11T18:55:22.625Z,18.90
2018-07-11T19:00:04.655Z,18.80
2018-07-11T19:03:41.695Z,18.80
2018-07-11T19:06:23.552Z,18.60
2018-07-11T19:09:07.436Z,18.50
2018-07-11T19:11:49.318Z,18.40
2018-07-11T19:14:32.661Z,18.40
2018-07-11T19:19:16.942Z,18.50
2018-07-11T19:23:59.613Z,18.40
2018-07-11T19:27:38.425Z,18.30
2018-07-11T19:30:12.991Z,18.20
2018-07-11T19:32:52.783Z,18.20
2018-07-11T19:37:35.508Z,18.20
2018-07-11T19:40:12.619Z,18.10
2018-07-11T19:43:29.751Z,17.90
2018-07-11T19:46:12.202Z,17.90
2018-07-11T19:49:17.505Z,17.80
2018-07-11T19:54:08.177Z,17.70
2018-07-11T19:56:43.612Z,17.60
2018-07-11T19:59:13.211Z,17.60
2018-07-11T20:01:42.063Z,17.50
2018-07-11T20:04:11.695Z,17.50
2018-07-11T20:06:40.840Z,17.50
2018-07-11T20:09:09.748Z,17.50
2018-07-11T20:11:38.369Z,17.50
2018-07-11T20:16:36.462Z,17.40
2018-07-11T20:19:05.261Z,17.40
2018-07-11T20:21:34.439Z,17.40
2018-07-11T20:24:02.998Z,17.40
2018-07-11T20:26:31.588Z,17.40
2018-07-11T20:29:00.281Z,17.40
2018-07-11T20:31:28.962Z,17.40
2018-07-11T20:33:57.471Z,17.40
2018-07-11T20:36:26.020Z,17.30
2018-07-11T20:38:54.560Z,17.30
2018-07-11T20:41:23.251Z,17.20
2018-07-11T20:43:52.298Z,17.10
2018-07-11T20:46:20.925Z,17.00
2018-07-11T20:51:18.696Z,16.80
2018-07-11T20:53:47.632Z,16.80
2018-07-11T20:56:17.695Z,16.70
2018-07-11T20:58:57.426Z,16.70
2018-07-11T21:01:38.015Z,16.70
2018-07-11T21:06:35.427Z,16.70
2018-07-11T21:12:58.625Z,16.50
2018-07-11T21:15:36.078Z,16.50
2018-07-11T21:19:09.487Z,16.40
2018-07-11T21:21:38.966Z,16.40
2018-07-11T21:24:08.470Z,16.30
2018-07-11T21:26:37.981Z,16.30
2018-07-11T21:31:35.745Z,16.20
2018-07-11T21:34:04.759Z,16.20
2018-07-11T21:36:33.242Z,16.20
2018-07-11T21:39:01.748Z,16.20
2018-07-11T21:41:30.287Z,16.20
2018-07-11T21:43:58.772Z,16.20
2018-07-11T21:46:28.341Z,16.10
2018-07-11T21:51:25.549Z,16.10
2018-07-11T21:53:54.055Z,16.10
2018-07-11T21:56:22.676Z,16.00
2018-07-11T21:58:51.290Z,15.90
2018-07-11T22:01:19.823Z,16.00
2018-07-11T22:03:49.236Z,16.10
2018-07-11T22:06:17.794Z,16.00
2018-07-11T22:08:46.242Z,16.00
2018-07-11T22:21:39.462Z,16.00
2018-07-11T22:24:06.800Z,16.00
2018-07-11T22:26:34.133Z,15.50
2018-07-11T22:29:01.494Z,15.40
2018-07-11T22:31:28.838Z,15.40
2018-07-11T22:33:56.183Z,15.50
2018-07-11T22:36:23.554Z,15.40
2018-07-11T22:38:50.877Z,15.40
2018-07-11T22:41:18.211Z,15.30
2018-07-11T22:43:46.366Z,15.30
2018-07-11T22:46:14.388Z,15.20
2018-07-11T22:48:41.739Z,15.20
2018-07-11T22:51:09.150Z,15.30
2018-07-11T22:53:36.497Z,15.20
2018-07-11T22:56:03.856Z,15.20
2018-07-11T22:58:31.235Z,15.10
2018-07-11T23:00:58.615Z,15.10
2018-07-11T23:03:25.967Z,15.10
2018-07-11T23:05:53.987Z,14.90
2018-07-11T23:08:21.428Z,14.90
2018-07-11T23:10:48.706Z,14.90
2018-07-11T23:13:16.254Z,14.90
2018-07-11T23:15:43.575Z,14.80
2018-07-11T23:18:10.931Z,14.80
2018-07-11T23:25:33.720Z,14.70
2018-07-11T23:28:01.554Z,14.70
2018-07-11T23:30:28.890Z,14.70
2018-07-11T23:32:56.239Z,14.70
2018-07-11T23:35:23.701Z,14.70
2018-07-11T23:37:51.333Z,14.60
2018-07-11T23:40:18.672Z,14.60
2018-07-11T23:42:46.264Z,14.70
2018-07-11T23:45:15.295Z,14.60
2018-07-11T23:47:42.626Z,14.70
2018-07-11T23:50:10.639Z,14.60
2018-07-11T23:52:37.980Z,14.60
2018-07-11T23:55:05.318Z,14.60
2018-07-11T23:57:32.699Z,14.50
